createdAt,value
2022-08-08T00:00:57.689Z,14.46
2022-08-08T00:03:20.088Z,14.56
2022-08-08T00:06:02.939Z,14.41
2022-08-08T00:08:41.122Z,14.39
2022-08-08T00:11:47.018Z,14.29
2022-08-08T00:14:48.218Z,14.37
2022-08-08T00:17:48.054Z,14.15
2022-08-08T00:20:25.571Z,14.19
2022-08-08T00:22:52.430Z,13.93
2022-08-08T00:25:20.464Z,13.93
2022-08-08T00:27:45.394Z,13.85
2022-08-08T00:30:11.137Z,13.85
2022-08-08T00:32:41.596Z,13.85
2022-08-08T00:35:30.015Z,13.93
2022-08-08T00:38:04.813Z,13.82
2022-08-08T00:41:10.963Z,13.72
2022-08-08T00:43:40.592Z,13.54
2022-08-08T00:46:16.395Z,13.58
2022-08-08T00:49:01.539Z,13.58
2022-08-08T00:51:38.391Z,13.61
2022-08-08T00:54:18.568Z,13.52
2022-08-08T00:57:19.902Z,13.47
2022-08-08T01:00:05.022Z,13.35
2022-08-08T01:03:58.917Z,13.28
2022-08-08T01:05:59.570Z,13.26
2022-08-08T01:09:36.735Z,13.31
2022-08-08T01:12:29.547Z,13.35
2022-08-08T01:15:43.341Z,13.17
2022-08-08T01:18:54.391Z,13.12
2022-08-08T01:22:10.002Z,13.09
2022-08-08T01:24:28.841Z,13.11
2022-08-08T01:27:21.277Z,13.11
2022-08-08T01:30:22.931Z,13.30
2022-08-08T01:33:24.061Z,13.12
2022-08-08T01:36:13.379Z,12.88
2022-08-08T01:39:00.854Z,12.84
2022-08-08T01:41:34.281Z,12.83
2022-08-08T01:44:12.639Z,12.86
2022-08-08T01:48:16.346Z,12.96
2022-08-08T01:50:36.322Z,12.88
2022-08-08T01:55:16.096Z,12.70
2022-08-08T01:56:28.908Z,12.63
2022-08-08T01:58:52.625Z,12.61
2022-08-08T02:01:28.120Z,12.60
2022-08-08T02:04:29.615Z,12.69
2022-08-08T02:07:04.779Z,12.71
2022-08-08T02:10:03.820Z,12.64
2022-08-08T02:12:34.907Z,12.45
2022-08-08T02:15:12.452Z,12.46
2022-08-08T02:17:53.696Z,12.52
2022-08-08T02:21:01.138Z,12.46
2022-08-08T02:23:32.015Z,12.40
2022-08-08T02:26:02.878Z,12.35
2022-08-08T02:28:51.955Z,12.31
2022-08-08T02:31:58.262Z,12.33
2022-08-08T02:35:08.184Z,12.38
2022-08-08T02:37:58.580Z,12.36
2022-08-08T02:40:30.964Z,12.29
2022-08-08T02:44:38.439Z,12.08
2022-08-08T02:46:22.785Z,12.03
2022-08-08T02:49:14.500Z,12.09
2022-08-08T02:51:57.012Z,11.90
2022-08-08T02:54:50.257Z,11.86
2022-08-08T02:57:40.624Z,11.86
2022-08-08T03:00:32.315Z,11.93
2022-08-08T03:05:00.750Z,11.91
2022-08-08T03:06:35.624Z,11.88
2022-08-08T03:09:06.223Z,11.80
2022-08-08T03:12:02.152Z,11.86
2022-08-08T03:15:58.358Z,11.75
2022-08-08T03:18:04.824Z,11.63
2022-08-08T03:20:51.454Z,11.67
2022-08-08T03:23:17.682Z,11.59
2022-08-08T03:25:41.081Z,11.58
2022-08-08T03:28:07.210Z,11.70
2022-08-08T03:30:28.977Z,11.70
2022-08-08T03:33:55.815Z,11.66
2022-08-08T03:35:55.226Z,11.65
2022-08-08T03:38:56.355Z,11.62
2022-08-08T03:41:08.802Z,11.51
2022-08-08T03:43:59.662Z,11.39
2022-08-08T03:46:21.332Z,11.33
2022-08-08T03:49:38.283Z,11.32
2022-08-08T03:51:51.458Z,11.23
2022-08-08T03:54:15.365Z,11.34
2022-08-08T03:56:46.350Z,11.30
2022-08-08T03:59:08.198Z,11.37
2022-08-08T04:02:31.722Z,11.33
2022-08-08T04:04:30.690Z,11.24
2022-08-08T04:06:57.438Z,11.23
2022-08-08T04:09:23.290Z,11.26
2022-08-08T04:11:59.046Z,11.22
2022-08-08T04:14:35.736Z,11.19
2022-08-08T04:16:57.992Z,11.29
2022-08-08T04:19:23.988Z,11.32
2022-08-08T04:21:46.780Z,11.34
2022-08-08T04:24:19.175Z,11.31
2022-08-08T04:26:57.241Z,11.32
2022-08-08T04:29:19.468Z,11.23
2022-08-08T04:31:58.634Z,11.10
2022-08-08T04:34:21.361Z,11.11
2022-08-08T04:36:48.308Z,11.23
2022-08-08T04:40:03.378Z,11.27
2022-08-08T04:41:53.095Z,11.25
2022-08-08T04:44:17.647Z,11.22
2022-08-08T04:46:42.486Z,11.12
2022-08-08T04:49:06.338Z,11.17
2022-08-08T04:51:55.343Z,11.29
2022-08-08T04:54:38.953Z,11.30
2022-08-08T04:56:56.036Z,11.32
2022-08-08T04:59:19.253Z,11.41
2022-08-08T05:01:49.001Z,11.48
2022-08-08T05:04:12.658Z,11.57
2022-08-08T05:06:36.456Z,11.67
2022-08-08T05:09:02.795Z,11.69
2022-08-08T05:11:27.295Z,11.68
2022-08-08T05:13:58.462Z,11.74
2022-08-08T05:16:55.075Z,11.84
2022-08-08T05:19:05.093Z,11.94
2022-08-08T05:21:26.767Z,12.02
2022-08-08T05:23:49.443Z,12.12
2022-08-08T05:26:14.176Z,12.20
2022-08-08T05:28:55.837Z,12.28
2022-08-08T05:32:02.436Z,12.40
2022-08-08T05:33:58.795Z,12.50
2022-08-08T05:36:27.903Z,12.58
2022-08-08T05:38:52.353Z,12.67
2022-08-08T05:41:17.873Z,12.76
2022-08-08T05:44:03.238Z,12.82
2022-08-08T05:46:27.347Z,12.89
2022-08-08T05:48:52.058Z,12.96
2022-08-08T05:51:15.603Z,13.06
2022-08-08T05:54:25.661Z,13.14
2022-08-08T05:56:20.468Z,13.22
2022-08-08T05:58:57.033Z,13.30
2022-08-08T06:01:55.750Z,13.41
2022-08-08T06:04:13.925Z,13.51
2022-08-08T06:06:49.237Z,13.58
2022-08-08T06:10:00.491Z,13.67
2022-08-08T06:12:00.538Z,13.78
2022-08-08T06:14:22.940Z,13.87
2022-08-08T06:16:45.362Z,13.96
2022-08-08T06:19:16.859Z,14.08
2022-08-08T06:21:48.825Z,14.18
2022-08-08T06:24:22.775Z,14.30
2022-08-08T06:26:57.216Z,14.40
2022-08-08T06:29:56.464Z,14.50
2022-08-08T06:32:17.198Z,14.62
2022-08-08T06:34:39.701Z,14.78
2022-08-08T06:37:10.733Z,14.86
2022-08-08T06:39:55.893Z,14.97
2022-08-08T06:42:18.822Z,15.08
2022-08-08T06:44:42.602Z,15.20
2022-08-08T06:47:04.384Z,15.31
2022-08-08T06:49:56.822Z,15.44
2022-08-08T06:52:10.843Z,15.64
2022-08-08T06:54:37.925Z,15.75
2022-08-08T06:57:02.289Z,15.84
2022-08-08T06:59:27.117Z,15.94
2022-08-08T07:02:27.323Z,16.22
2022-08-08T07:05:01.999Z,16.36
2022-08-08T07:07:52.385Z,16.75
2022-08-08T07:10:20.725Z,17.05
2022-08-08T07:12:47.823Z,17.26
2022-08-08T07:15:32.108Z,17.31
2022-08-08T07:18:37.179Z,17.47
2022-08-08T07:20:51.393Z,17.62
2022-08-08T07:24:01.388Z,17.67
2022-08-08T07:26:32.914Z,17.77
2022-08-08T07:28:58.686Z,17.90
2022-08-08T07:31:28.572Z,18.09
2022-08-08T07:33:53.338Z,18.19
2022-08-08T07:36:22.906Z,18.32
2022-08-08T07:38:53.387Z,18.59
2022-08-08T07:41:24.822Z,18.74
2022-08-08T07:43:53.632Z,18.94
2022-08-08T07:46:23.776Z,19.08
2022-08-08T07:48:51.984Z,19.33
2022-08-08T07:51:23.101Z,19.51
2022-08-08T07:54:26.903Z,19.71
2022-08-08T07:57:17.026Z,19.94
2022-08-08T08:00:16.293Z,20.15
2022-08-08T08:02:43.013Z,20.32
2022-08-08T08:05:21.486Z,20.59
2022-08-08T08:07:53.116Z,20.75
2022-08-08T08:10:18.611Z,20.95
2022-08-08T08:12:54.577Z,21.05
2022-08-08T08:15:21.679Z,21.27
2022-08-08T08:17:48.515Z,21.43
2022-08-08T08:20:11.294Z,21.67
2022-08-08T08:22:33.761Z,22.00
2022-08-08T08:24:55.514Z,22.09
2022-08-08T08:27:19.977Z,22.15
2022-08-08T08:29:42.304Z,22.34
2022-08-08T08:32:05.638Z,22.42
2022-08-08T08:34:32.795Z,22.60
2022-08-08T08:36:55.468Z,22.84
2022-08-08T08:39:23.067Z,22.95
2022-08-08T08:41:45.956Z,23.01
2022-08-08T08:44:14.618Z,23.18
2022-08-08T08:46:37.713Z,23.43
2022-08-08T08:49:01.080Z,23.36
2022-08-08T08:51:26.820Z,23.46
2022-08-08T08:53:58.917Z,23.47
2022-08-08T08:56:25.106Z,23.97
2022-08-08T08:58:50.842Z,24.06
2022-08-08T09:01:15.273Z,24.16
2022-08-08T09:03:46.058Z,24.20
2022-08-08T09:06:26.849Z,24.39
2022-08-08T09:08:58.820Z,24.59
2022-08-08T09:11:21.677Z,24.71
2022-08-08T09:13:45.384Z,24.76
2022-08-08T09:16:09.444Z,24.74
2022-08-08T09:18:35.244Z,24.87
2022-08-08T09:21:59.989Z,25.04
2022-08-08T09:23:41.727Z,25.18
2022-08-08T09:26:14.475Z,25.33
2022-08-08T09:28:39.948Z,25.49
2022-08-08T09:31:12.522Z,25.53
2022-08-08T09:34:14.710Z,25.60
2022-08-08T09:36:23.579Z,25.75
2022-08-08T09:38:59.313Z,25.93
2022-08-08T09:42:14.716Z,26.03
2022-08-08T09:44:34.004Z,26.06
2022-08-08T09:47:05.625Z,26.06
2022-08-08T09:49:42.165Z,26.11
2022-08-08T09:52:16.185Z,26.36
2022-08-08T09:54:54.596Z,26.32
2022-08-08T09:57:46.546Z,26.47
2022-08-08T10:00:47.885Z,26.65
2022-08-08T10:03:07.304Z,26.67
2022-08-08T10:05:35.464Z,26.83
2022-08-08T10:08:00.050Z,27.02
2022-08-08T10:10:31.891Z,26.98
2022-08-08T10:12:57.417Z,26.98
2022-08-08T10:15:26.885Z,27.04
2022-08-08T10:18:06.161Z,27.40
2022-08-08T10:20:57.977Z,27.42
2022-08-08T10:23:42.168Z,27.42
2022-08-08T10:26:16.858Z,27.44
2022-08-08T10:29:22.746Z,27.63
2022-08-08T10:32:05.560Z,27.66
2022-08-08T10:34:29.407Z,27.70
2022-08-08T10:36:53.877Z,27.85
2022-08-08T10:39:23.358Z,27.91
2022-08-08T10:42:15.129Z,28.04
2022-08-08T10:44:41.758Z,27.96
2022-08-08T10:47:13.537Z,28.09
2022-08-08T10:50:00.479Z,28.21
2022-08-08T10:52:43.191Z,28.29
2022-08-08T10:55:10.912Z,28.32
2022-08-08T10:57:50.480Z,28.36
2022-08-08T11:00:26.080Z,28.41
2022-08-08T11:02:47.940Z,28.38
2022-08-08T11:05:14.944Z,28.54
2022-08-08T11:08:31.441Z,28.55
2022-08-08T11:10:29.250Z,28.64
2022-08-08T11:13:25.490Z,28.66
2022-08-08T11:15:52.444Z,28.76
2022-08-08T11:18:19.877Z,28.70
2022-08-08T11:20:42.030Z,28.90
2022-08-08T11:23:17.238Z,29.08
2022-08-08T11:25:53.035Z,29.18
2022-08-08T11:28:23.356Z,29.34
2022-08-08T11:30:50.525Z,29.45
2022-08-08T11:33:14.706Z,29.49
2022-08-08T11:35:43.404Z,29.58
2022-08-08T11:38:36.925Z,29.68
2022-08-08T11:40:52.377Z,29.86
2022-08-08T11:43:16.778Z,29.81
2022-08-08T11:46:06.868Z,29.80
2022-08-08T11:48:24.277Z,29.97
2022-08-08T11:50:52.579Z,30.06
2022-08-08T11:53:14.482Z,30.25
2022-08-08T11:55:48.038Z,30.20
2022-08-08T11:58:14.563Z,30.07
2022-08-08T12:00:45.234Z,30.20
2022-08-08T12:03:17.218Z,30.30
2022-08-08T12:05:42.871Z,30.18
2022-08-08T12:08:05.018Z,30.24
2022-08-08T12:10:30.193Z,30.50
2022-08-08T12:13:04.022Z,30.88
2022-08-08T12:15:39.951Z,30.98
2022-08-08T12:18:21.220Z,31.22
2022-08-08T12:20:46.496Z,31.22
2022-08-08T12:23:14.034Z,31.18
2022-08-08T12:25:52.701Z,31.53
2022-08-08T12:28:18.931Z,31.76
2022-08-08T12:30:48.010Z,31.95
2022-08-08T12:33:37.088Z,32.29
2022-08-08T12:36:10.318Z,33.01
2022-08-08T12:38:47.804Z,33.21
2022-08-08T12:41:34.051Z,33.50
2022-08-08T12:44:04.821Z,34.22
2022-08-08T12:46:28.677Z,34.80
2022-08-08T12:49:22.193Z,35.49
2022-08-08T12:51:49.933Z,36.14
2022-08-08T12:54:25.177Z,36.95
2022-08-08T12:56:47.306Z,37.71
2022-08-08T12:59:18.197Z,38.35
2022-08-08T13:01:49.345Z,38.60
2022-08-08T13:04:18.645Z,38.79
2022-08-08T13:07:11.838Z,39.30
2022-08-08T13:09:57.614Z,39.62
2022-08-08T13:12:32.976Z,39.74
2022-08-08T13:14:57.780Z,39.77
2022-08-08T13:17:53.898Z,40.04
2022-08-08T13:20:18.220Z,40.31
2022-08-08T13:22:40.077Z,40.26
2022-08-08T13:25:03.123Z,40.82
2022-08-08T13:27:35.591Z,40.99
2022-08-08T13:30:03.790Z,41.47
2022-08-08T13:32:28.192Z,41.80
2022-08-08T13:34:52.478Z,41.76
2022-08-08T13:37:19.563Z,41.59
2022-08-08T13:39:50.973Z,41.84
2022-08-08T13:42:12.543Z,41.93
2022-08-08T13:44:35.901Z,42.33
2022-08-08T13:47:02.052Z,42.57
2022-08-08T13:50:39.646Z,42.50
2022-08-08T13:52:09.429Z,41.99
2022-08-08T13:54:34.452Z,41.88
2022-08-08T13:57:12.473Z,41.45
2022-08-08T13:59:48.581Z,41.90
2022-08-08T14:02:14.211Z,42.25
2022-08-08T14:04:36.497Z,42.64
2022-08-08T14:07:03.241Z,42.42
2022-08-08T14:10:04.212Z,42.37
2022-08-08T14:12:26.944Z,41.98
2022-08-08T14:14:49.674Z,41.54
2022-08-08T14:17:22.527Z,41.27
2022-08-08T14:20:15.748Z,41.16
2022-08-08T14:22:50.477Z,41.19
2022-08-08T14:25:15.390Z,41.43
2022-08-08T14:27:43.682Z,41.49
2022-08-08T14:30:21.389Z,41.10
2022-08-08T14:32:53.417Z,40.74
2022-08-08T14:35:19.043Z,40.14
2022-08-08T14:37:59.744Z,40.05
2022-08-08T14:40:25.605Z,40.15
2022-08-08T14:42:56.596Z,40.37
2022-08-08T14:45:18.726Z,40.74
2022-08-08T14:47:57.391Z,40.75
2022-08-08T14:50:38.181Z,41.35
2022-08-08T14:53:06.863Z,41.25
2022-08-08T14:55:41.317Z,41.30
2022-08-08T14:58:11.622Z,41.40
2022-08-08T15:00:37.955Z,41.31
2022-08-08T15:03:14.551Z,41.15
2022-08-08T15:05:52.190Z,40.83
2022-08-08T15:08:22.402Z,41.13
2022-08-08T15:10:55.099Z,41.12
2022-08-08T15:13:16.627Z,41.35
2022-08-08T15:16:02.781Z,41.39
2022-08-08T15:18:23.792Z,41.34
2022-08-08T15:20:51.524Z,41.30
2022-08-08T15:23:16.440Z,41.10
2022-08-08T15:25:38.149Z,41.31
2022-08-08T15:28:32.773Z,41.11
2022-08-08T15:30:42.961Z,41.23
2022-08-08T15:33:04.522Z,41.01
2022-08-08T15:35:26.043Z,40.97
2022-08-08T15:37:51.365Z,41.17
2022-08-08T15:40:15.086Z,41.34
2022-08-08T15:42:37.417Z,41.11
2022-08-08T15:45:02.242Z,41.18
2022-08-08T15:47:24.301Z,41.01
2022-08-08T15:49:48.819Z,40.81
2022-08-08T15:52:13.863Z,40.54
2022-08-08T15:54:38.579Z,40.32
2022-08-08T15:57:01.999Z,40.28
2022-08-08T16:00:06.361Z,39.98
2022-08-08T16:02:10.020Z,39.62
2022-08-08T16:04:34.742Z,39.12
2022-08-08T16:06:56.835Z,39.08
2022-08-08T16:13:02.254Z,39.37
2022-08-08T16:13:02.573Z,39.07
2022-08-08T16:14:53.673Z,39.47
2022-08-08T16:17:16.060Z,39.36
2022-08-08T16:20:00.858Z,39.54
2022-08-08T16:22:30.041Z,39.28
2022-08-08T16:24:54.348Z,39.13
2022-08-08T16:27:18.103Z,39.68
2022-08-08T16:30:14.341Z,39.69
2022-08-08T16:32:25.361Z,39.21
2022-08-08T16:34:49.545Z,39.24
2022-08-08T16:37:11.838Z,39.41
2022-08-08T16:40:02.211Z,39.19
2022-08-08T16:42:19.222Z,39.14
2022-08-08T16:44:40.844Z,39.02
2022-08-08T16:47:16.427Z,38.89
2022-08-08T16:49:38.698Z,38.94
2022-08-08T16:55:02.583Z,38.75
2022-08-08T16:55:03.842Z,38.88
2022-08-08T16:58:14.495Z,38.61
2022-08-08T17:00:08.957Z,38.71
2022-08-08T17:02:37.794Z,38.59
2022-08-08T17:05:01.490Z,38.18
2022-08-08T17:07:24.795Z,37.89
2022-08-08T17:09:52.066Z,37.94
2022-08-08T17:12:18.481Z,37.83
2022-08-08T17:14:43.995Z,37.56
2022-08-08T17:17:41.917Z,37.30
2022-08-08T17:19:49.533Z,37.12
2022-08-08T17:22:12.440Z,36.99
2022-08-08T17:24:34.563Z,36.77
2022-08-08T17:26:59.285Z,36.23
2022-08-08T17:29:24.837Z,35.97
2022-08-08T17:31:47.237Z,35.81
2022-08-08T17:34:48.863Z,35.52
2022-08-08T17:37:02.789Z,35.45
2022-08-08T17:40:05.067Z,35.15
2022-08-08T17:42:07.094Z,34.88
2022-08-08T17:44:28.564Z,34.81
2022-08-08T17:46:51.057Z,34.78
2022-08-08T17:49:16.561Z,34.72
2022-08-08T17:51:51.758Z,34.50
2022-08-08T17:54:22.277Z,34.49
2022-08-08T17:56:47.851Z,34.36
2022-08-08T17:59:13.199Z,34.43
2022-08-08T18:01:56.021Z,34.25
2022-08-08T18:04:28.821Z,33.96
2022-08-08T18:06:56.518Z,33.55
2022-08-08T18:09:19.049Z,33.47
2022-08-08T18:11:43.108Z,33.20
2022-08-08T18:14:04.816Z,32.88
2022-08-08T18:16:45.389Z,32.70
2022-08-08T18:19:18.004Z,32.50
2022-08-08T18:22:01.032Z,32.35
2022-08-08T18:24:25.345Z,32.04
2022-08-08T18:26:53.646Z,31.79
2022-08-08T18:29:16.880Z,31.39
2022-08-08T18:31:41.352Z,31.00
2022-08-08T18:34:12.235Z,30.57
2022-08-08T18:36:47.962Z,30.15
2022-08-08T18:39:09.447Z,29.91
2022-08-08T18:41:51.244Z,29.63
2022-08-08T18:44:19.665Z,29.35
2022-08-08T18:46:55.988Z,29.16
2022-08-08T18:49:19.405Z,28.88
2022-08-08T18:51:53.187Z,28.73
2022-08-08T18:54:22.867Z,28.57
2022-08-08T18:56:53.727Z,28.23
2022-08-08T18:59:15.453Z,28.03
2022-08-08T19:02:25.965Z,27.80
2022-08-08T19:04:18.437Z,27.58
2022-08-08T19:06:40.554Z,27.38
2022-08-08T19:09:13.514Z,27.19
2022-08-08T19:11:36.352Z,26.94
2022-08-08T19:13:58.933Z,26.74
2022-08-08T19:16:20.708Z,26.61
2022-08-08T19:18:51.802Z,26.45
2022-08-08T19:21:30.061Z,26.30
2022-08-08T19:23:52.991Z,26.01
2022-08-08T19:26:30.804Z,25.85
2022-08-08T19:28:52.775Z,25.72
2022-08-08T19:31:16.811Z,25.57
2022-08-08T19:33:51.869Z,25.46
2022-08-08T19:36:27.370Z,25.47
2022-08-08T19:38:51.291Z,25.17
2022-08-08T19:41:12.801Z,24.83
2022-08-08T19:43:56.272Z,24.69
2022-08-08T19:46:24.057Z,24.56
2022-08-08T19:48:54.938Z,24.33
2022-08-08T19:51:16.730Z,24.08
2022-08-08T19:53:55.412Z,23.93
2022-08-08T19:56:39.349Z,23.87
2022-08-08T19:58:58.602Z,23.81
2022-08-08T20:01:25.779Z,23.47
2022-08-08T20:04:02.538Z,23.27
2022-08-08T20:06:24.569Z,23.17
2022-08-08T20:08:48.306Z,23.09
2022-08-08T20:11:14.735Z,22.96
2022-08-08T20:14:32.760Z,22.92
2022-08-08T20:16:19.671Z,23.01
2022-08-08T20:18:53.314Z,22.79
2022-08-08T20:21:15.968Z,22.47
2022-08-08T20:23:45.359Z,22.23
2022-08-08T20:26:07.858Z,22.07
2022-08-08T20:28:33.014Z,22.09
2022-08-08T20:30:56.577Z,21.95
2022-08-08T20:35:57.518Z,21.83
2022-08-08T20:38:29.084Z,21.80
2022-08-08T20:40:53.432Z,21.62
2022-08-08T20:43:22.934Z,21.52
2022-08-08T20:46:03.235Z,21.48
2022-08-08T20:48:26.218Z,21.37
2022-08-08T20:50:49.813Z,21.34
2022-08-08T20:53:20.329Z,21.28
2022-08-08T20:55:56.402Z,21.15
2022-08-08T20:58:23.052Z,21.13
2022-08-08T21:00:44.821Z,21.04
2022-08-08T21:03:06.575Z,21.05
2022-08-08T21:05:31.879Z,21.03
2022-08-08T21:08:37.189Z,20.89
2022-08-08T21:10:35.019Z,20.64
2022-08-08T21:12:56.556Z,20.56
2022-08-08T21:16:06.484Z,20.46
2022-08-08T21:18:00.763Z,20.34
2022-08-08T21:20:22.388Z,20.28
2022-08-08T21:22:55.789Z,20.32
2022-08-08T21:25:19.817Z,20.21
2022-08-08T21:28:13.295Z,20.05
2022-08-08T21:30:24.554Z,19.72
2022-08-08T21:32:52.204Z,19.64
2022-08-08T21:36:14.999Z,19.54
2022-08-08T21:38:04.077Z,19.51
2022-08-08T21:40:31.087Z,19.52
2022-08-08T21:42:53.237Z,19.49
2022-08-08T21:45:20.909Z,19.32
2022-08-08T21:48:00.707Z,19.26
2022-08-08T21:50:37.623Z,19.19
2022-08-08T21:54:27.358Z,19.23
2022-08-08T21:56:28.222Z,19.15
2022-08-08T21:58:24.840Z,18.98
2022-08-08T22:00:54.881Z,18.94
2022-08-08T22:03:17.836Z,18.76
2022-08-08T22:05:41.454Z,18.55
2022-08-08T22:08:03.479Z,18.67
2022-08-08T22:10:32.020Z,18.49
2022-08-08T22:12:57.395Z,18.42
2022-08-08T22:15:21.967Z,18.32
2022-08-08T22:17:45.681Z,18.17
2022-08-08T22:20:10.442Z,18.16
2022-08-08T22:22:37.948Z,18.15
2022-08-08T22:24:59.937Z,18.17
2022-08-08T22:27:38.479Z,18.18
2022-08-08T22:30:03.765Z,18.06
2022-08-08T22:32:27.761Z,18.00
2022-08-08T22:34:51.167Z,18.01
2022-08-08T22:37:15.002Z,17.91
2022-08-08T22:40:00.724Z,17.87
2022-08-08T22:42:23.915Z,17.74
2022-08-08T22:44:48.998Z,17.63
2022-08-08T22:47:18.037Z,17.52
2022-08-08T22:49:40.609Z,17.40
2022-08-08T22:52:02.205Z,17.37
2022-08-08T22:54:31.289Z,17.28
2022-08-08T22:57:08.711Z,17.17
2022-08-08T22:59:36.155Z,17.18
2022-08-08T23:02:12.828Z,17.15
2022-08-08T23:04:34.831Z,17.20
2022-08-08T23:07:02.946Z,17.23
2022-08-08T23:09:30.678Z,17.12
2022-08-08T23:12:27.592Z,16.86
2022-08-08T23:14:33.898Z,16.68
2022-08-08T23:16:59.568Z,16.65
2022-08-08T23:19:21.293Z,16.65
2022-08-08T23:21:43.151Z,16.64
2022-08-08T23:24:08.436Z,16.62
2022-08-08T23:26:30.687Z,16.73
2022-08-08T23:28:52.955Z,16.54
2022-08-08T23:31:14.746Z,16.48
2022-08-08T23:34:16.697Z,16.44
2022-08-08T23:36:20.699Z,16.37
2022-08-08T23:38:52.766Z,16.21
2022-08-08T23:41:22.770Z,16.16
2022-08-08T23:43:47.776Z,16.12
2022-08-08T23:49:03.602Z,16.15
2022-08-08T23:49:07.325Z,16.15
2022-08-08T23:51:41.863Z,16.25
2022-08-08T23:54:43.548Z,16.13
2022-08-08T23:56:56.810Z,15.90
2022-08-08T23:59:19.474Z,15.85
